createdAt,value
2018-04-11T00:01:59.478Z,11.82
2018-04-11T00:04:25.495Z,11.78
2018-04-11T00:06:52.545Z,11.79
2018-04-11T00:09:18.656Z,11.79
2018-04-11T00:11:44.751Z,11.79
2018-04-11T00:14:10.783Z,11.81
2018-04-11T00:16:36.845Z,11.80
2018-04-11T00:19:02.907Z,11.80
2018-04-11T00:21:28.996Z,11.81
2018-04-11T00:23:55.002Z,11.85
2018-04-11T00:26:21.241Z,11.71
2018-04-11T00:28:47.390Z,11.69
2018-04-11T00:31:13.549Z,11.74
2018-04-11T00:33:39.659Z,11.68
2018-04-11T00:36:05.769Z,11.65
2018-04-11T00:38:31.767Z,11.61
2018-04-11T00:40:57.836Z,11.61
2018-04-11T00:43:23.869Z,11.61
2018-04-11T00:45:49.957Z,11.57
2018-04-11T00:48:15.990Z,11.55
2018-04-11T00:50:41.989Z,11.54
2018-04-11T00:53:20.235Z,11.51
2018-04-11T00:55:46.264Z,11.51
2018-04-11T00:58:12.332Z,11.52
2018-04-11T01:00:38.366Z,11.49
2018-04-11T01:03:05.097Z,11.41
2018-04-11T01:05:31.125Z,11.42
2018-04-11T01:07:57.152Z,11.35
2018-04-11T01:10:23.185Z,11.33
2018-04-11T01:12:49.251Z,11.28
2018-04-11T01:15:15.277Z,11.29
2018-04-11T01:17:41.301Z,11.31
2018-04-11T01:20:07.464Z,11.31
2018-04-11T01:22:33.536Z,11.30
2018-04-11T01:24:59.525Z,11.34
2018-04-11T01:27:25.536Z,11.30
2018-04-11T01:29:51.578Z,11.30
2018-04-11T01:32:17.585Z,11.29
2018-04-11T01:34:43.658Z,11.24
2018-04-11T01:37:09.668Z,11.22
2018-04-11T01:39:35.647Z,11.19
2018-04-11T01:42:01.669Z,11.14
2018-04-11T01:44:27.696Z,11.16
2018-04-11T01:46:53.724Z,11.15
2018-04-11T01:49:19.763Z,11.14
2018-04-11T01:51:45.793Z,11.19
2018-04-11T01:54:11.833Z,11.22
2018-04-11T01:56:37.840Z,11.22
2018-04-11T01:59:03.944Z,11.20
2018-04-11T02:01:29.958Z,11.24
2018-04-11T02:03:55.980Z,11.22
2018-04-11T02:06:21.981Z,11.19
2018-04-11T02:08:48.029Z,11.19
2018-04-11T02:11:14.053Z,11.20
2018-04-11T02:13:40.068Z,11.22
2018-04-11T02:16:06.128Z,11.21
2018-04-11T02:18:32.140Z,11.20
2018-04-11T02:20:58.173Z,11.33
2018-04-11T02:23:24.183Z,11.54
2018-04-11T02:25:50.258Z,11.48
2018-04-11T02:28:16.314Z,11.03
2018-04-11T02:30:42.339Z,10.97
2018-04-11T02:33:08.397Z,10.91
2018-04-11T02:35:34.400Z,10.87
2018-04-11T02:38:00.495Z,10.86
2018-04-11T02:40:26.573Z,10.78
2018-04-11T02:42:52.570Z,10.74
2018-04-11T02:45:18.671Z,10.72
2018-04-11T02:47:44.707Z,10.74
2018-04-11T02:50:10.726Z,10.72
2018-04-11T02:52:36.783Z,10.87
2018-04-11T02:55:03.019Z,10.84
2018-04-11T02:57:29.095Z,10.98
2018-04-11T02:59:55.123Z,11.06
2018-04-11T03:02:21.136Z,11.08
2018-04-11T03:04:47.287Z,11.03
2018-04-11T03:07:13.360Z,11.03
2018-04-11T03:09:39.359Z,10.94
2018-04-11T03:12:05.384Z,10.90
2018-04-11T03:14:31.426Z,10.88
2018-04-11T03:16:57.449Z,10.81
2018-04-11T03:19:23.460Z,10.79
2018-04-11T03:21:49.464Z,10.78
2018-04-11T03:24:15.543Z,10.78
2018-04-11T03:26:41.560Z,10.88
2018-04-11T03:29:07.586Z,10.94
2018-04-11T03:31:33.692Z,11.00
2018-04-11T03:33:59.724Z,11.04
2018-04-11T03:36:25.730Z,11.04
2018-04-11T03:38:51.749Z,11.05
2018-04-11T03:41:17.819Z,11.07
2018-04-11T03:43:43.848Z,11.14
2018-04-11T03:46:09.849Z,11.18
2018-04-11T03:48:35.862Z,11.15
2018-04-11T03:51:01.893Z,11.15
2018-04-11T03:53:28.090Z,11.15
2018-04-11T03:55:54.135Z,11.14
2018-04-11T03:58:20.129Z,11.19
2018-04-11T04:00:46.167Z,11.22
2018-04-11T04:03:12.173Z,11.23
2018-04-11T04:05:38.216Z,11.22
2018-04-11T04:08:04.223Z,11.21
2018-04-11T04:10:30.234Z,11.20
2018-04-11T04:12:56.257Z,11.19
2018-04-11T04:15:34.330Z,11.19
2018-04-11T04:18:12.420Z,11.19
2018-04-11T04:20:38.612Z,11.19
2018-04-11T04:23:04.670Z,11.16
2018-04-11T04:25:30.698Z,11.15
2018-04-11T04:27:56.718Z,11.14
2018-04-11T04:30:22.858Z,11.11
2018-04-11T04:32:48.862Z,11.05
2018-04-11T04:35:14.889Z,11.00
2018-04-11T04:37:41.027Z,11.06
2018-04-11T04:40:07.076Z,11.01
2018-04-11T04:42:33.069Z,11.00
2018-04-11T04:44:59.137Z,10.91
2018-04-11T04:47:25.259Z,10.89
2018-04-11T04:49:51.344Z,10.81
2018-04-11T04:52:17.340Z,10.76
2018-04-11T04:54:43.364Z,10.76
2018-04-11T04:57:09.969Z,10.74
2018-04-11T04:59:35.995Z,10.73
2018-04-11T05:02:02.019Z,10.69
2018-04-11T05:04:28.034Z,10.64
2018-04-11T05:06:54.049Z,10.65
2018-04-11T05:09:20.082Z,10.67
2018-04-11T05:11:46.092Z,10.69
2018-04-11T05:14:12.075Z,10.75
2018-04-11T05:16:38.109Z,10.67
2018-04-11T05:19:04.120Z,10.62
2018-04-11T05:21:30.168Z,10.63
2018-04-11T05:23:56.214Z,10.65
2018-04-11T05:26:22.237Z,10.68
2018-04-11T05:28:48.314Z,10.70
2018-04-11T05:31:14.372Z,10.74
2018-04-11T05:33:40.425Z,10.77
2018-04-11T05:36:06.449Z,10.82
2018-04-11T05:38:32.472Z,10.85
2018-04-11T05:40:59.163Z,10.91
2018-04-11T05:43:25.229Z,10.94
2018-04-11T05:45:51.293Z,10.99
2018-04-11T05:48:17.289Z,11.01
2018-04-11T05:50:43.300Z,11.04
2018-04-11T05:53:09.382Z,11.09
2018-04-11T05:55:35.425Z,11.14
2018-04-11T05:58:01.559Z,11.25
2018-04-11T06:00:27.658Z,11.34
2018-04-11T06:02:53.830Z,11.39
2018-04-11T06:05:20.039Z,11.46
2018-04-11T06:07:46.077Z,11.50
2018-04-11T06:10:12.140Z,11.55
2018-04-11T06:12:38.152Z,11.60
2018-04-11T06:15:04.191Z,11.69
2018-04-11T06:17:30.205Z,11.80
2018-04-11T06:19:56.204Z,11.91
2018-04-11T06:22:22.300Z,11.99
2018-04-11T06:24:48.337Z,12.12
2018-04-11T06:27:14.473Z,12.24
2018-04-11T06:29:40.603Z,12.34
2018-04-11T06:32:06.776Z,12.38
2018-04-11T06:34:32.912Z,12.39
2018-04-11T06:36:59.058Z,12.42
2018-04-11T06:39:25.196Z,12.47
2018-04-11T06:41:51.694Z,12.46
2018-04-11T06:44:17.887Z,12.39
2018-04-11T06:46:44.026Z,12.37
2018-04-11T06:49:10.181Z,12.42
2018-04-11T06:51:36.225Z,12.51
2018-04-11T06:54:02.393Z,12.56
2018-04-11T06:56:28.520Z,12.56
2018-04-11T06:58:55.261Z,12.62
2018-04-11T07:01:21.419Z,12.65
2018-04-11T07:03:47.475Z,12.75
2018-04-11T07:06:13.571Z,12.82
2018-04-11T07:08:39.784Z,12.97
2018-04-11T07:11:05.834Z,13.17
2018-04-11T07:13:31.955Z,13.22
2018-04-11T07:15:58.044Z,13.23
2018-04-11T07:18:24.140Z,13.25
2018-04-11T07:20:50.265Z,13.33
2018-04-11T07:23:17.013Z,13.48
2018-04-11T07:25:43.105Z,13.71
2018-04-11T07:28:09.252Z,13.83
2018-04-11T07:30:35.341Z,13.82
2018-04-11T07:33:01.423Z,13.87
2018-04-11T07:35:27.473Z,13.77
2018-04-11T07:37:53.637Z,13.72
2018-04-11T07:40:19.690Z,13.67
2018-04-11T07:42:45.770Z,13.70
2018-04-11T07:45:11.847Z,13.83
2018-04-11T07:47:37.896Z,13.97
2018-04-11T07:50:03.916Z,13.90
2018-04-11T07:52:30.044Z,13.83
2018-04-11T07:54:56.153Z,13.79
2018-04-11T07:57:22.223Z,13.78
2018-04-11T07:59:48.311Z,13.86
2018-04-11T08:02:14.352Z,13.82
2018-04-11T08:04:40.486Z,13.73
2018-04-11T08:07:06.555Z,13.85
2018-04-11T08:09:32.600Z,13.94
2018-04-11T08:11:59.248Z,13.98
2018-04-11T08:14:25.406Z,13.96
2018-04-11T08:16:51.438Z,13.94
2018-04-11T08:19:17.520Z,14.04
2018-04-11T08:21:43.678Z,14.07
2018-04-11T08:24:09.716Z,14.27
2018-04-11T08:26:35.812Z,14.57
2018-04-11T08:29:01.888Z,14.67
2018-04-11T08:31:28.002Z,15.13
2018-04-11T08:33:54.422Z,15.65
2018-04-11T08:36:20.483Z,15.74
2018-04-11T08:38:46.590Z,15.56
2018-04-11T08:41:12.762Z,16.09
2018-04-11T08:43:38.924Z,16.41
2018-04-11T08:46:04.944Z,16.04
2018-04-11T08:48:31.029Z,15.98
2018-04-11T08:50:57.182Z,16.55
2018-04-11T08:53:23.309Z,16.56
2018-04-11T08:55:49.428Z,17.45
2018-04-11T08:58:15.461Z,17.32
2018-04-11T09:00:41.536Z,17.20
2018-04-11T09:03:08.246Z,16.83
2018-04-11T09:05:34.373Z,16.66
2018-04-11T09:08:00.429Z,16.76
2018-04-11T09:10:26.501Z,16.76
2018-04-11T09:12:52.574Z,17.18
2018-04-11T09:15:18.676Z,17.50
2018-04-11T09:17:44.684Z,17.18
2018-04-11T09:20:10.740Z,17.16
2018-04-11T09:22:36.901Z,17.13
2018-04-11T09:25:03.053Z,16.81
2018-04-11T09:27:29.169Z,16.70
2018-04-11T09:29:55.225Z,16.78
2018-04-11T09:32:21.949Z,16.82
2018-04-11T09:34:48.025Z,16.81
2018-04-11T09:37:14.081Z,16.99
2018-04-11T09:39:40.090Z,17.12
2018-04-11T09:42:06.134Z,16.97
2018-04-11T09:44:32.178Z,16.78
2018-04-11T09:46:58.288Z,16.48
2018-04-11T09:49:24.371Z,16.18
2018-04-11T09:51:50.424Z,16.02
2018-04-11T09:54:16.587Z,15.87
2018-04-11T09:56:42.698Z,15.68
2018-04-11T09:59:08.721Z,15.62
2018-04-11T10:01:40.837Z,15.44
2018-04-11T10:04:06.984Z,15.35
2018-04-11T10:06:33.070Z,15.20
2018-04-11T10:08:59.137Z,14.90
2018-04-11T10:11:25.156Z,14.91
2018-04-11T10:13:51.277Z,14.86
2018-04-11T10:16:17.445Z,14.88
2018-04-11T10:18:43.625Z,14.86
2018-04-11T10:21:09.687Z,14.80
2018-04-11T10:23:35.729Z,14.69
2018-04-11T10:26:01.823Z,14.69
2018-04-11T10:28:27.890Z,14.62
2018-04-11T10:30:53.947Z,14.35
2018-04-11T10:33:20.000Z,14.23
2018-04-11T10:35:46.012Z,14.15
2018-04-11T10:38:12.033Z,14.05
2018-04-11T10:40:38.045Z,14.01
2018-04-11T10:43:04.088Z,14.00
2018-04-11T10:45:30.163Z,14.05
2018-04-11T10:47:56.264Z,13.94
2018-04-11T10:50:22.318Z,13.94
2018-04-11T10:52:48.333Z,13.93
2018-04-11T10:55:14.448Z,13.86
2018-04-11T10:57:40.497Z,13.93
2018-04-11T11:00:06.553Z,13.99
2018-04-11T11:02:32.564Z,14.04
2018-04-11T11:04:58.572Z,14.09
2018-04-11T11:07:24.621Z,14.11
2018-04-11T11:09:50.739Z,14.11
2018-04-11T11:12:16.789Z,14.26
2018-04-11T11:14:42.872Z,14.30
2018-04-11T11:17:09.074Z,14.36
2018-04-11T11:19:35.284Z,14.28
2018-04-11T11:22:01.457Z,14.33
2018-04-11T11:24:27.587Z,14.37
2018-04-11T11:26:53.610Z,14.39
2018-04-11T11:29:19.635Z,14.53
2018-04-11T11:31:46.421Z,14.50
2018-04-11T11:34:12.434Z,14.53
2018-04-11T11:36:38.659Z,14.41
2018-04-11T11:39:04.804Z,14.64
2018-04-11T11:41:31.309Z,14.88
2018-04-11T11:43:57.422Z,14.97
2018-04-11T11:46:23.452Z,15.14
2018-04-11T11:48:49.555Z,15.30
2018-04-11T11:51:15.568Z,15.37
2018-04-11T11:53:41.608Z,15.53
2018-04-11T11:56:08.605Z,15.49
2018-04-11T11:58:34.818Z,15.52
2018-04-11T12:01:00.832Z,15.41
2018-04-11T12:03:26.869Z,15.36
2018-04-11T12:05:52.918Z,15.35
2018-04-11T12:08:18.960Z,15.28
2018-04-11T12:10:44.990Z,15.20
2018-04-11T12:13:11.680Z,15.26
2018-04-11T12:15:37.721Z,15.30
2018-04-11T12:18:03.784Z,15.12
2018-04-11T12:20:29.863Z,14.83
2018-04-11T12:22:55.878Z,14.74
2018-04-11T12:25:21.936Z,14.67
2018-04-11T12:27:47.956Z,14.62
2018-04-11T12:30:13.952Z,14.53
2018-04-11T12:32:39.977Z,14.45
2018-04-11T12:35:06.023Z,14.44
2018-04-11T12:37:32.080Z,14.31
2018-04-11T12:39:58.088Z,14.35
2018-04-11T12:42:24.118Z,14.59
2018-04-11T12:44:50.146Z,14.63
2018-04-11T12:47:16.221Z,14.87
2018-04-11T12:49:42.514Z,15.09
2018-04-11T12:52:08.546Z,15.08
2018-04-11T12:54:34.662Z,15.03
2018-04-11T13:01:06.760Z,15.02
2018-04-11T13:03:32.760Z,14.97
2018-04-11T13:05:58.820Z,14.73
2018-04-11T13:08:24.852Z,14.85
2018-04-11T13:10:50.905Z,15.14
2018-04-11T13:13:17.282Z,15.57
2018-04-11T13:15:43.363Z,15.63
2018-04-11T13:18:09.384Z,15.76
2018-04-11T13:20:35.574Z,15.84
2018-04-11T13:23:01.734Z,16.07
2018-04-11T13:25:27.781Z,16.23
2018-04-11T13:27:53.796Z,16.33
2018-04-11T13:30:19.821Z,16.50
2018-04-11T13:32:45.853Z,16.37
2018-04-11T13:35:11.949Z,16.43
2018-04-11T13:37:37.995Z,16.54
2018-04-11T13:40:04.006Z,16.97
2018-04-11T13:42:30.100Z,17.66
2018-04-11T13:44:56.181Z,18.10
2018-04-11T13:47:22.275Z,18.17
2018-04-11T13:49:48.347Z,18.24
2018-04-11T13:52:14.366Z,18.76
2018-04-11T13:54:40.521Z,18.70
2018-04-11T13:57:06.570Z,18.61
2018-04-11T13:59:32.600Z,18.34
2018-04-11T14:01:59.565Z,17.94
2018-04-11T14:04:26.654Z,17.84
2018-04-11T14:06:52.836Z,17.65
2018-04-11T14:09:19.041Z,17.27
2018-04-11T14:11:45.160Z,17.10
2018-04-11T14:14:11.186Z,16.67
2018-04-11T14:16:37.381Z,16.51
2018-04-11T14:19:03.473Z,16.59
2018-04-11T14:21:29.582Z,16.71
2018-04-11T14:23:55.652Z,17.03
2018-04-11T14:26:21.711Z,17.28
2018-04-11T14:28:47.871Z,17.51
2018-04-11T14:31:13.940Z,17.40
2018-04-11T14:33:39.974Z,17.44
2018-04-11T14:36:06.065Z,17.34
2018-04-11T14:38:32.144Z,17.13
2018-04-11T14:40:58.275Z,17.06
2018-04-11T14:43:24.295Z,17.24
2018-04-11T14:45:50.397Z,17.75
2018-04-11T14:48:16.473Z,18.14
2018-04-11T14:50:42.573Z,17.77
2018-04-11T14:53:08.658Z,17.60
2018-04-11T14:55:34.884Z,17.75
2018-04-11T14:58:00.970Z,18.42
2018-04-11T15:00:27.001Z,19.35
2018-04-11T15:02:53.093Z,19.99
2018-04-11T15:05:19.241Z,20.79
2018-04-11T15:07:45.329Z,21.26
2018-04-11T15:10:11.357Z,19.71
2018-04-11T15:12:37.393Z,19.41
2018-04-11T15:15:03.724Z,19.33
2018-04-11T15:17:29.911Z,19.50
2018-04-11T15:19:56.090Z,19.96
2018-04-11T15:22:22.113Z,19.44
2018-04-11T15:24:48.162Z,19.30
2018-04-11T15:27:14.265Z,20.33
2018-04-11T15:29:40.276Z,19.62
2018-04-11T15:32:06.302Z,19.15
2018-04-11T15:34:32.341Z,19.61
2018-04-11T15:36:58.510Z,19.09
2018-04-11T15:39:24.557Z,19.01
2018-04-11T15:41:50.604Z,18.49
2018-04-11T15:44:16.752Z,18.65
2018-04-11T15:46:43.765Z,18.29
2018-04-11T15:49:09.782Z,18.23
2018-04-11T15:51:35.877Z,17.96
2018-04-11T15:54:01.893Z,17.91
2018-04-11T15:56:27.925Z,17.90
2018-04-11T15:58:53.968Z,19.25
2018-04-11T16:01:20.030Z,20.81
2018-04-11T16:03:46.181Z,22.41
2018-04-11T16:06:12.254Z,20.18
2018-04-11T16:08:38.337Z,21.15
2018-04-11T16:11:04.429Z,21.10
2018-04-11T16:13:30.449Z,21.13
2018-04-11T16:15:56.537Z,21.36
2018-04-11T16:18:22.569Z,19.10
2018-04-11T16:20:48.837Z,18.98
2018-04-11T16:23:14.914Z,18.73
2018-04-11T16:25:41.051Z,19.13
2018-04-11T16:28:07.211Z,18.65
2018-04-11T16:30:33.288Z,17.91
2018-04-11T16:32:59.324Z,17.64
2018-04-11T16:35:25.402Z,17.50
2018-04-11T16:37:51.628Z,17.40
2018-04-11T16:40:17.720Z,17.19
2018-04-11T16:42:43.774Z,16.99
2018-04-11T16:45:09.820Z,16.92
2018-04-11T16:47:35.896Z,16.83
2018-04-11T16:50:01.925Z,16.86
2018-04-11T16:52:28.073Z,16.80
2018-04-11T16:54:54.148Z,16.75
2018-04-11T16:57:20.231Z,16.71
2018-04-11T16:59:46.324Z,16.60
2018-04-11T17:02:12.416Z,16.56
2018-04-11T17:04:38.501Z,16.48
2018-04-11T17:07:04.576Z,16.40
2018-04-11T17:09:30.657Z,16.35
2018-04-11T17:11:56.805Z,16.34
2018-04-11T17:14:22.975Z,16.34
2018-04-11T17:16:49.122Z,16.37
2018-04-11T17:19:15.212Z,16.38
2018-04-11T17:21:53.367Z,16.35
2018-04-11T17:24:31.699Z,16.27
2018-04-11T17:27:09.883Z,16.31
2018-04-11T17:29:48.158Z,16.21
2018-04-11T17:32:14.192Z,16.15
2018-04-11T17:34:40.299Z,16.14
2018-04-11T17:37:06.333Z,16.08
2018-04-11T17:39:32.386Z,16.08
2018-04-11T17:41:58.395Z,16.02
2018-04-11T17:44:24.449Z,15.95
2018-04-11T17:46:50.469Z,15.89
2018-04-11T17:49:16.475Z,15.82
2018-04-11T17:51:42.515Z,15.74
2018-04-11T17:54:08.839Z,15.68
2018-04-11T17:56:34.963Z,15.62
2018-04-11T17:59:01.120Z,15.53
2018-04-11T18:01:27.219Z,15.43
2018-04-11T18:03:53.229Z,15.36
2018-04-11T18:06:19.453Z,15.30
2018-04-11T18:08:45.527Z,15.25
2018-04-11T18:11:11.636Z,15.22
2018-04-11T18:13:37.669Z,15.18
2018-04-11T18:16:03.789Z,15.12
2018-04-11T18:18:29.844Z,14.98
2018-04-11T18:20:55.966Z,14.95
2018-04-11T18:23:22.017Z,14.92
2018-04-11T18:25:48.031Z,14.89
2018-04-11T18:28:14.076Z,14.84
2018-04-11T18:30:40.116Z,14.76
2018-04-11T18:33:06.179Z,14.67
2018-04-11T18:35:32.185Z,14.62
2018-04-11T18:37:58.227Z,14.60
2018-04-11T18:40:24.281Z,14.53
2018-04-11T18:42:50.370Z,14.48
2018-04-11T18:45:16.475Z,14.38
2018-04-11T18:47:42.535Z,14.29
2018-04-11T18:50:08.605Z,14.21
2018-04-11T18:52:34.611Z,14.14
2018-04-11T18:55:01.539Z,14.06
2018-04-11T18:57:27.717Z,14.02
2018-04-11T18:59:53.826Z,13.93
2018-04-11T19:02:19.868Z,13.84
2018-04-11T19:04:45.900Z,13.80
2018-04-11T19:07:11.956Z,13.72
2018-04-11T19:09:38.034Z,13.64
2018-04-11T19:12:04.081Z,13.57
2018-04-11T19:14:30.103Z,13.48
2018-04-11T19:16:56.132Z,13.47
2018-04-11T19:19:22.204Z,13.42
2018-04-11T19:21:48.283Z,13.38
2018-04-11T19:24:14.317Z,13.35
2018-04-11T19:26:40.425Z,13.37
2018-04-11T19:29:06.450Z,13.35
2018-04-11T19:31:32.557Z,13.30
2018-04-11T19:33:58.597Z,13.28
2018-04-11T19:36:24.656Z,13.25
2018-04-11T19:38:50.766Z,13.25
2018-04-11T19:41:16.755Z,13.26
2018-04-11T19:43:43.260Z,13.26
2018-04-11T19:46:09.523Z,13.29
2018-04-11T19:48:35.631Z,13.29
2018-04-11T19:51:01.724Z,13.27
2018-04-11T19:53:27.789Z,13.32
2018-04-11T19:55:53.895Z,13.33
2018-04-11T19:58:19.940Z,13.34
2018-04-11T20:00:45.969Z,13.34
2018-04-11T20:03:11.976Z,13.35
2018-04-11T20:05:38.102Z,13.35
2018-04-11T20:08:04.206Z,13.35
2018-04-11T20:10:30.252Z,13.35
2018-04-11T20:12:56.275Z,13.36
2018-04-11T20:15:23.033Z,13.36
2018-04-11T20:17:49.169Z,13.35
2018-04-11T20:20:15.306Z,13.34
2018-04-11T20:22:41.375Z,13.31
2018-04-11T20:25:07.431Z,13.31
2018-04-11T20:27:34.132Z,13.31
2018-04-11T20:30:00.190Z,13.30
2018-04-11T20:32:26.218Z,13.30
2018-04-11T20:34:52.367Z,13.30
2018-04-11T20:37:18.388Z,13.30
2018-04-11T20:39:44.456Z,13.29
2018-04-11T20:42:10.539Z,13.27
2018-04-11T20:44:36.577Z,13.28
2018-04-11T20:47:02.656Z,13.29
2018-04-11T20:49:28.685Z,13.29
2018-04-11T20:51:54.690Z,13.28
2018-04-11T20:54:20.708Z,13.27
2018-04-11T20:56:46.838Z,13.27
2018-04-11T20:59:12.947Z,13.27
2018-04-11T21:01:38.949Z,13.28
2018-04-11T21:04:05.613Z,13.29
2018-04-11T21:06:31.713Z,13.29
2018-04-11T21:08:57.855Z,13.30
2018-04-11T21:11:23.905Z,13.29
2018-04-11T21:13:49.920Z,13.31
2018-04-11T21:16:15.957Z,13.32
2018-04-11T21:18:42.026Z,13.33
2018-04-11T21:21:08.055Z,13.31
2018-04-11T21:23:34.113Z,13.36
2018-04-11T21:26:00.238Z,13.35
2018-04-11T21:28:26.288Z,13.40
2018-04-11T21:32:07.532Z,13.56
2018-04-11T21:34:33.705Z,13.66
2018-04-11T21:36:59.714Z,13.65
2018-04-11T21:39:25.747Z,13.72
2018-04-11T21:41:51.833Z,13.78
2018-04-11T21:44:17.876Z,13.72
2018-04-11T21:46:43.893Z,13.71
2018-04-11T21:49:09.910Z,13.75
2018-04-11T21:51:36.018Z,13.72
2018-04-11T21:54:02.030Z,13.71
2018-04-11T21:56:28.128Z,13.65
2018-04-11T21:58:54.172Z,13.68
2018-04-11T22:01:20.197Z,13.61
2018-04-11T22:03:46.240Z,13.60
2018-04-11T22:06:12.241Z,13.63
2018-04-11T22:08:38.274Z,13.70
2018-04-11T22:11:04.291Z,13.63
2018-04-11T22:13:30.296Z,13.65
2018-04-11T22:15:56.384Z,13.58
2018-04-11T22:18:22.432Z,13.57
2018-04-11T22:20:48.504Z,13.56
2018-04-11T22:23:14.607Z,13.57
2018-04-11T22:25:40.713Z,13.59
2018-04-11T22:28:06.755Z,13.61
2018-04-11T22:30:32.778Z,13.56
2018-04-11T22:32:58.943Z,13.55
2018-04-11T22:35:26.046Z,13.53
2018-04-11T22:37:52.118Z,13.50
2018-04-11T22:40:18.145Z,13.46
2018-04-11T22:42:44.145Z,13.46
2018-04-11T22:45:10.462Z,13.42
2018-04-11T22:47:36.545Z,13.42
2018-04-11T22:50:02.638Z,13.43
2018-04-11T22:52:28.676Z,13.39
2018-04-11T22:54:55.297Z,13.41
2018-04-11T22:57:21.380Z,13.37
2018-04-11T22:59:47.505Z,13.36
2018-04-11T23:02:13.572Z,13.32
2018-04-11T23:04:39.670Z,13.30
2018-04-11T23:07:05.739Z,13.30
2018-04-11T23:09:31.830Z,13.32
2018-04-11T23:11:57.910Z,13.30
2018-04-11T23:14:24.411Z,13.28
2018-04-11T23:16:50.461Z,13.34
2018-04-11T23:19:16.551Z,13.29
2018-04-11T23:21:42.598Z,13.32
2018-04-11T23:24:08.716Z,13.25
2018-04-11T23:26:34.828Z,13.18
2018-04-11T23:29:00.881Z,13.14
2018-04-11T23:31:27.157Z,13.06
2018-04-11T23:33:53.293Z,13.01
2018-04-11T23:36:19.464Z,12.94
2018-04-11T23:38:45.540Z,12.92
2018-04-11T23:41:11.570Z,12.84
2018-04-11T23:43:37.680Z,12.77
2018-04-11T23:46:03.728Z,12.74
2018-04-11T23:48:29.752Z,12.67
2018-04-11T23:50:55.759Z,12.60
2018-04-11T23:53:21.828Z,12.54
2018-04-11T23:55:47.830Z,12.48
2018-04-11T23:58:13.848Z,12.43
